Terminal Aerodrome Forecast
Issued by NWS Louisville, KY

Home | Current Version | Previous Version | Text Only | Print | Product List | Glossary On
Versions: 1 2 3 4 5 6 7 8 9 10 11 12 13
146
FTUS43 KLMK 140520
TAFLEX
TAF
KLEX 140520Z 1406/1506 08007KT P6SM BKN100
     FM141500 11009KT 6SM -SN BKN040
     FM142100 13008KT 2SM -SN BKN007
      TEMPO 1422/1502 1SM -SN BKN004
     FM150200 16009KT 3SM -SN BKN006=

USA.gov is the U.S. government's official web portal to all federal, state and local government web resources and services.